createdAt,value
2023-03-01T00:00:33.715Z,1027.41
2023-03-01T00:01:33.698Z,1027.42
2023-03-01T00:02:33.704Z,1027.41
2023-03-01T00:03:33.716Z,1027.40
2023-03-01T00:04:33.656Z,1027.41
2023-03-01T00:05:33.639Z,1027.40
2023-03-01T00:06:33.800Z,1027.40
2023-03-01T00:07:33.607Z,1027.37
2023-03-01T00:08:33.597Z,1027.39
2023-03-01T00:09:33.578Z,1027.37
2023-03-01T00:10:33.564Z,1027.37
2023-03-01T00:11:33.544Z,1027.42
2023-03-01T00:12:33.532Z,1027.36
2023-03-01T00:13:33.538Z,1027.36
2023-03-01T00:14:33.500Z,1027.37
2023-03-01T00:15:33.482Z,1027.31
2023-03-01T00:16:33.701Z,1027.34
2023-03-01T00:17:33.449Z,1027.36
2023-03-01T00:18:33.435Z,1027.31
2023-03-01T00:19:33.430Z,1027.32
2023-03-01T00:20:33.402Z,1027.29
2023-03-01T00:21:33.431Z,1027.27
2023-03-01T00:22:33.375Z,1027.23
2023-03-01T00:23:33.356Z,1027.21
2023-03-01T00:24:33.343Z,1027.19
2023-03-01T00:25:33.325Z,1027.18
2023-03-01T00:26:33.429Z,1027.17
2023-03-01T00:27:33.298Z,1027.15
2023-03-01T00:28:33.285Z,1027.16
2023-03-01T00:29:33.262Z,1027.18
2023-03-01T00:30:33.277Z,1027.15
2023-03-01T00:31:33.248Z,1027.17
2023-03-01T00:32:33.217Z,1027.16
2023-03-01T00:33:33.201Z,1027.16
2023-03-01T00:34:33.182Z,1027.20
2023-03-01T00:35:33.206Z,1027.16
2023-03-01T00:36:33.553Z,1027.18
2023-03-01T00:37:33.147Z,1027.20
2023-03-01T00:38:33.124Z,1027.26
2023-03-01T00:39:33.108Z,1027.20
2023-03-01T00:40:33.090Z,1027.21
2023-03-01T00:41:33.102Z,1027.19
2023-03-01T00:42:33.068Z,1027.18
2023-03-01T00:43:33.048Z,1027.20
2023-03-01T00:44:33.028Z,1027.22
2023-03-01T00:45:33.013Z,1027.23
2023-03-01T00:46:33.468Z,1027.22
2023-03-01T00:47:32.979Z,1027.24
2023-03-01T00:48:32.966Z,1027.25
2023-03-01T00:49:32.958Z,1027.24
2023-03-01T00:50:32.935Z,1027.27
2023-03-01T00:51:32.931Z,1027.24
2023-03-01T00:52:32.908Z,1027.19
2023-03-01T00:53:32.894Z,1027.16
2023-03-01T00:54:32.877Z,1027.19
2023-03-01T00:55:32.860Z,1027.18
2023-03-01T00:56:33.280Z,1027.13
2023-03-01T00:57:32.824Z,1027.11
2023-03-01T00:58:32.810Z,1027.15
2023-03-01T00:59:32.794Z,1027.09
2023-03-01T01:00:32.776Z,1027.06
2023-03-01T01:01:32.837Z,1027.03
2023-03-01T01:02:32.805Z,1027.06
2023-03-01T01:03:32.730Z,1027.04
2023-03-01T01:04:32.714Z,1027.00
2023-03-01T01:05:32.699Z,1027.00
2023-03-01T01:06:33.078Z,1026.98
2023-03-01T01:07:32.666Z,1026.98
2023-03-01T01:08:32.647Z,1026.94
2023-03-01T01:09:32.640Z,1026.95
2023-03-01T01:10:32.615Z,1026.93
2023-03-01T01:11:32.625Z,1026.89
2023-03-01T01:12:32.585Z,1026.89
2023-03-01T01:13:32.570Z,1026.89
2023-03-01T01:14:32.552Z,1026.90
2023-03-01T01:15:32.561Z,1026.87
2023-03-01T01:16:32.956Z,1026.86
2023-03-01T01:17:32.503Z,1026.88
2023-03-01T01:18:32.487Z,1026.89
2023-03-01T01:19:32.472Z,1026.85
2023-03-01T01:20:32.479Z,1026.86
2023-03-01T01:21:32.446Z,1026.84
2023-03-01T01:22:32.425Z,1026.86
2023-03-01T01:23:32.423Z,1026.82
2023-03-01T01:24:32.388Z,1026.82
2023-03-01T01:25:32.372Z,1026.79
2023-03-01T01:26:32.850Z,1026.77
2023-03-01T01:27:32.345Z,1026.73
2023-03-01T01:28:32.332Z,1026.70
2023-03-01T01:29:32.308Z,1026.65
2023-03-01T01:30:32.307Z,1026.65
2023-03-01T01:31:32.387Z,1026.62
2023-03-01T01:32:32.322Z,1026.61
2023-03-01T01:33:32.257Z,1026.60
2023-03-01T01:34:32.236Z,1026.59
2023-03-01T01:35:32.263Z,1026.60
2023-03-01T01:36:32.721Z,1026.59
2023-03-01T01:37:32.186Z,1026.63
2023-03-01T01:38:32.173Z,1026.58
2023-03-01T01:39:32.152Z,1026.62
2023-03-01T01:40:32.144Z,1026.60
2023-03-01T01:41:32.116Z,1026.61
2023-03-01T01:42:32.103Z,1026.61
2023-03-01T01:43:32.085Z,1026.63
2023-03-01T01:44:32.077Z,1026.57
2023-03-01T01:45:32.055Z,1026.56
2023-03-01T01:46:32.582Z,1026.57
2023-03-01T01:47:32.083Z,1026.56
2023-03-01T01:48:32.004Z,1026.55
2023-03-01T01:49:31.993Z,1026.51
2023-03-01T01:50:31.973Z,1026.54
2023-03-01T01:51:31.958Z,1026.56
2023-03-01T01:52:31.942Z,1026.51
2023-03-01T01:53:31.926Z,1026.46
2023-03-01T01:54:31.909Z,1026.44
2023-03-01T01:55:31.894Z,1026.42
2023-03-01T01:56:32.324Z,1026.41
2023-03-01T01:57:31.860Z,1026.40
2023-03-01T01:58:31.869Z,1026.38
2023-03-01T01:59:31.830Z,1026.39
2023-03-01T02:00:31.817Z,1026.42
2023-03-01T02:01:31.799Z,1026.45
2023-03-01T02:02:31.825Z,1026.47
2023-03-01T02:03:31.880Z,1026.48
2023-03-01T02:04:31.748Z,1026.48
2023-03-01T02:05:31.742Z,1026.48
2023-03-01T02:06:32.038Z,1026.48
2023-03-01T02:07:31.702Z,1026.51
2023-03-01T02:08:31.690Z,1026.51
2023-03-01T02:09:31.672Z,1026.52
2023-03-01T02:10:31.656Z,1026.49
2023-03-01T02:11:31.640Z,1026.53
2023-03-01T02:12:31.618Z,1026.50
2023-03-01T02:13:31.609Z,1026.50
2023-03-01T02:14:31.588Z,1026.48
2023-03-01T02:15:31.579Z,1026.53
2023-03-01T02:16:32.057Z,1026.51
2023-03-01T02:17:31.541Z,1026.49
2023-03-01T02:18:31.526Z,1026.50
2023-03-01T02:19:31.510Z,1026.49
2023-03-01T02:20:31.502Z,1026.50
2023-03-01T02:21:31.473Z,1026.52
2023-03-01T02:22:31.520Z,1026.51
2023-03-01T02:23:31.445Z,1026.50
2023-03-01T02:24:31.433Z,1026.57
2023-03-01T02:25:31.412Z,1026.60
2023-03-01T02:26:31.695Z,1026.63
2023-03-01T02:27:31.382Z,1026.64
2023-03-01T02:28:31.364Z,1026.67
2023-03-01T02:29:31.363Z,1026.68
2023-03-01T02:30:31.334Z,1026.72
2023-03-01T02:31:31.360Z,1026.73
2023-03-01T02:32:31.302Z,1026.74
2023-03-01T02:33:31.282Z,1026.75
2023-03-01T02:34:31.272Z,1026.75
2023-03-01T02:35:31.266Z,1026.78
2023-03-01T02:36:31.551Z,1026.78
2023-03-01T02:37:31.222Z,1026.79
2023-03-01T02:38:31.205Z,1026.73
2023-03-01T02:39:31.192Z,1026.72
2023-03-01T02:40:31.175Z,1026.70
2023-03-01T02:41:31.160Z,1026.67
2023-03-01T02:42:31.142Z,1026.66
2023-03-01T02:43:31.133Z,1026.68
2023-03-01T02:44:31.109Z,1026.68
2023-03-01T02:45:31.100Z,1026.63
2023-03-01T02:46:31.431Z,1026.66
2023-03-01T02:47:31.066Z,1026.64
2023-03-01T02:48:31.049Z,1026.59
2023-03-01T02:49:31.033Z,1026.60
2023-03-01T02:50:31.018Z,1026.57
2023-03-01T02:51:30.998Z,1026.58
2023-03-01T02:52:30.993Z,1026.61
2023-03-01T02:53:30.965Z,1026.58
2023-03-01T02:54:30.949Z,1026.54
2023-03-01T02:55:30.936Z,1026.49
2023-03-01T02:56:31.250Z,1026.51
2023-03-01T02:57:30.911Z,1026.48
2023-03-01T02:58:30.886Z,1026.44
2023-03-01T02:59:30.873Z,1026.46
2023-03-01T03:00:30.890Z,1026.48
2023-03-01T03:01:30.836Z,1026.46
2023-03-01T03:02:30.823Z,1026.49
2023-03-01T03:03:30.878Z,1026.48
2023-03-01T03:04:30.789Z,1026.48
2023-03-01T03:05:30.775Z,1026.49
2023-03-01T03:06:31.133Z,1026.45
2023-03-01T03:07:30.742Z,1026.48
2023-03-01T03:08:30.764Z,1026.50
2023-03-01T03:09:30.718Z,1026.51
2023-03-01T03:10:30.692Z,1026.48
2023-03-01T03:11:30.680Z,1026.49
2023-03-01T03:12:30.661Z,1026.52
2023-03-01T03:13:30.648Z,1026.49
2023-03-01T03:14:30.626Z,1026.47
2023-03-01T03:15:30.612Z,1026.48
2023-03-01T03:16:30.933Z,1026.50
2023-03-01T03:17:30.582Z,1026.46
2023-03-01T03:18:30.564Z,1026.45
2023-03-01T03:19:30.568Z,1026.44
2023-03-01T03:20:30.533Z,1026.47
2023-03-01T03:21:30.561Z,1026.47
2023-03-01T03:22:30.501Z,1026.39
2023-03-01T03:23:30.486Z,1026.38
2023-03-01T03:24:30.465Z,1026.34
2023-03-01T03:25:30.484Z,1026.36
2023-03-01T03:26:30.815Z,1026.30
2023-03-01T03:27:30.417Z,1026.33
2023-03-01T03:28:30.413Z,1026.35
2023-03-01T03:29:30.385Z,1026.33
2023-03-01T03:30:30.379Z,1026.36
2023-03-01T03:31:30.402Z,1026.32
2023-03-01T03:32:30.371Z,1026.31
2023-03-01T03:33:30.314Z,1026.32
2023-03-01T03:34:30.306Z,1026.29
2023-03-01T03:35:30.389Z,1026.27
2023-03-01T03:36:30.504Z,1026.27
2023-03-01T03:37:30.253Z,1026.27
2023-03-01T03:38:30.238Z,1026.22
2023-03-01T03:39:30.223Z,1026.26
2023-03-01T03:40:30.205Z,1026.20
2023-03-01T03:41:30.189Z,1026.20
2023-03-01T03:42:30.175Z,1026.14
2023-03-01T03:43:30.159Z,1026.13
2023-03-01T03:44:30.146Z,1026.13
2023-03-01T03:45:30.156Z,1026.13
2023-03-01T03:46:30.108Z,1026.13
2023-03-01T03:47:30.091Z,1026.11
2023-03-01T03:48:30.076Z,1026.12
2023-03-01T03:49:30.070Z,1026.16
2023-03-01T03:50:30.047Z,1026.11
2023-03-01T03:51:30.058Z,1026.11
2023-03-01T03:52:30.012Z,1026.07
2023-03-01T03:53:29.994Z,1026.06
2023-03-01T03:54:29.977Z,1026.08
2023-03-01T03:55:29.962Z,1026.09
2023-03-01T03:56:30.424Z,1026.07
2023-03-01T03:57:29.930Z,1026.06
2023-03-01T03:58:29.921Z,1026.06
2023-03-01T03:59:29.909Z,1026.05
2023-03-01T04:00:29.902Z,1026.04
2023-03-01T04:01:29.911Z,1026.06
2023-03-01T04:02:29.896Z,1026.04
2023-03-01T04:03:29.847Z,1026.04
2023-03-01T04:04:29.822Z,1026.02
2023-03-01T04:05:29.800Z,1026.01
2023-03-01T04:06:30.104Z,1025.99
2023-03-01T04:07:29.767Z,1025.98
2023-03-01T04:08:29.750Z,1026.02
2023-03-01T04:09:29.740Z,1026.00
2023-03-01T04:10:29.726Z,1025.98
2023-03-01T04:11:29.730Z,1025.93
2023-03-01T04:12:29.686Z,1025.91
2023-03-01T04:13:29.683Z,1025.93
2023-03-01T04:14:29.659Z,1025.91
2023-03-01T04:15:29.665Z,1025.94
2023-03-01T04:16:30.163Z,1025.97
2023-03-01T04:17:29.604Z,1025.98
2023-03-01T04:18:29.595Z,1025.99
2023-03-01T04:19:29.575Z,1026.01
2023-03-01T04:20:29.554Z,1025.99
2023-03-01T04:21:29.540Z,1026.01
2023-03-01T04:22:29.525Z,1026.00
2023-03-01T04:23:29.508Z,1026.06
2023-03-01T04:24:29.492Z,1026.02
2023-03-01T04:25:29.477Z,1026.02
2023-03-01T04:26:29.763Z,1026.02
2023-03-01T04:27:29.441Z,1026.03
2023-03-01T04:28:29.427Z,1026.05
2023-03-01T04:29:29.411Z,1026.04
2023-03-01T04:30:29.394Z,1026.05
2023-03-01T04:31:29.425Z,1026.05
2023-03-01T04:32:29.382Z,1026.05
2023-03-01T04:33:29.346Z,1026.04
2023-03-01T04:34:29.325Z,1026.10
2023-03-01T04:35:29.381Z,1026.06
2023-03-01T04:36:29.566Z,1026.08
2023-03-01T04:37:29.287Z,1026.05
2023-03-01T04:38:29.267Z,1026.04
2023-03-01T04:39:29.249Z,1026.04
2023-03-01T04:40:29.232Z,1026.05
2023-03-01T04:41:29.219Z,1026.05
2023-03-01T04:42:29.201Z,1026.05
2023-03-01T04:43:29.199Z,1026.02
2023-03-01T04:44:29.167Z,1025.98
2023-03-01T04:45:29.149Z,1026.00
2023-03-01T04:46:29.593Z,1026.01
2023-03-01T04:47:29.117Z,1025.99
2023-03-01T04:48:29.114Z,1025.99
2023-03-01T04:49:29.085Z,1026.02
2023-03-01T04:50:29.071Z,1026.00
2023-03-01T04:51:29.057Z,1026.01
2023-03-01T04:52:29.033Z,1026.00
2023-03-01T04:53:29.019Z,1025.98
2023-03-01T04:54:29.004Z,1026.04
2023-03-01T04:55:28.992Z,1026.01
2023-03-01T04:56:29.246Z,1026.01
2023-03-01T04:57:28.955Z,1026.02
2023-03-01T04:58:28.938Z,1026.01
2023-03-01T04:59:28.932Z,1025.96
2023-03-01T05:00:28.920Z,1025.94
2023-03-01T05:01:28.891Z,1025.95
2023-03-01T05:02:28.879Z,1025.92
2023-03-01T05:03:28.866Z,1025.94
2023-03-01T05:04:28.875Z,1025.91
2023-03-01T05:05:28.836Z,1025.93
2023-03-01T05:06:29.096Z,1025.92
2023-03-01T05:07:28.805Z,1025.91
2023-03-01T05:08:28.790Z,1025.94
2023-03-01T05:09:28.755Z,1025.92
2023-03-01T05:10:28.760Z,1025.93
2023-03-01T05:11:28.730Z,1025.90
2023-03-01T05:12:28.712Z,1025.92
2023-03-01T05:13:28.690Z,1025.91
2023-03-01T05:14:28.677Z,1025.91
2023-03-01T05:15:28.662Z,1025.88
2023-03-01T05:16:28.965Z,1025.91
2023-03-01T05:17:28.626Z,1025.87
2023-03-01T05:18:28.623Z,1025.90
2023-03-01T05:19:28.594Z,1025.91
2023-03-01T05:20:28.576Z,1025.85
2023-03-01T05:21:28.561Z,1025.90
2023-03-01T05:22:28.545Z,1025.86
2023-03-01T05:23:28.531Z,1025.84
2023-03-01T05:24:28.517Z,1025.83
2023-03-01T05:25:28.497Z,1025.88
2023-03-01T05:26:28.957Z,1025.87
2023-03-01T05:27:28.464Z,1025.86
2023-03-01T05:28:28.445Z,1025.88
2023-03-01T05:29:28.437Z,1025.87
2023-03-01T05:30:28.408Z,1025.87
2023-03-01T05:31:28.491Z,1025.90
2023-03-01T05:32:28.384Z,1025.90
2023-03-01T05:33:28.364Z,1025.88
2023-03-01T05:34:28.352Z,1025.89
2023-03-01T05:35:28.365Z,1025.85
2023-03-01T05:36:28.331Z,1025.84
2023-03-01T05:37:28.304Z,1025.87
2023-03-01T05:38:28.282Z,1025.82
2023-03-01T05:39:28.262Z,1025.85
2023-03-01T05:40:28.250Z,1025.85
2023-03-01T05:41:28.229Z,1025.84
2023-03-01T05:42:28.212Z,1025.84
2023-03-01T05:43:28.199Z,1025.82
2023-03-01T05:44:28.179Z,1025.83
2023-03-01T05:45:28.176Z,1025.80
2023-03-01T05:46:28.541Z,1025.82
2023-03-01T05:47:28.138Z,1025.78
2023-03-01T05:48:28.115Z,1025.75
2023-03-01T05:49:28.101Z,1025.76
2023-03-01T05:50:28.101Z,1025.73
2023-03-01T05:51:28.068Z,1025.74
2023-03-01T05:52:28.045Z,1025.76
2023-03-01T05:53:28.031Z,1025.77
2023-03-01T05:54:28.021Z,1025.75
2023-03-01T05:55:29.092Z,1025.77
2023-03-01T05:56:28.227Z,1025.77
2023-03-01T05:57:27.996Z,1025.80
2023-03-01T05:58:27.959Z,1025.85
2023-03-01T05:59:27.935Z,1025.86
2023-03-01T06:00:27.919Z,1025.82
2023-03-01T06:01:27.902Z,1025.83
2023-03-01T06:02:27.892Z,1025.83
2023-03-01T06:03:27.878Z,1025.83
2023-03-01T06:04:27.901Z,1025.83
2023-03-01T06:05:27.940Z,1025.82
2023-03-01T06:06:29.148Z,1025.81
2023-03-01T06:07:27.801Z,1025.78
2023-03-01T06:08:27.802Z,1025.79
2023-03-01T06:09:27.775Z,1025.85
2023-03-01T06:10:27.758Z,1025.78
2023-03-01T06:11:27.743Z,1025.86
2023-03-01T06:12:27.722Z,1025.83
2023-03-01T06:13:27.720Z,1025.83
2023-03-01T06:14:27.705Z,1025.81
2023-03-01T06:15:27.683Z,1025.87
2023-03-01T06:16:27.751Z,1025.82
2023-03-01T06:17:27.645Z,1025.80
2023-03-01T06:18:27.624Z,1025.79
2023-03-01T06:19:27.616Z,1025.79
2023-03-01T06:20:27.591Z,1025.77
2023-03-01T06:21:27.578Z,1025.80
2023-03-01T06:22:27.569Z,1025.78
2023-03-01T06:23:27.541Z,1025.78
2023-03-01T06:24:27.543Z,1025.77
2023-03-01T06:25:27.512Z,1025.78
2023-03-01T06:26:27.494Z,1025.79
2023-03-01T06:27:27.485Z,1025.76
2023-03-01T06:28:27.466Z,1025.78
2023-03-01T06:29:27.449Z,1025.80
2023-03-01T06:30:27.438Z,1025.81
2023-03-01T06:31:27.453Z,1025.86
2023-03-01T06:32:27.478Z,1025.83
2023-03-01T06:33:27.381Z,1025.89
2023-03-01T06:34:27.368Z,1025.90
2023-03-01T06:35:27.380Z,1025.90
2023-03-01T06:36:27.331Z,1025.93
2023-03-01T06:37:27.331Z,1025.99
2023-03-01T06:38:27.311Z,1025.96
2023-03-01T06:39:27.279Z,1025.98
2023-03-01T06:40:27.261Z,1025.97
2023-03-01T06:41:27.246Z,1026.02
2023-03-01T06:42:27.230Z,1026.00
2023-03-01T06:43:27.236Z,1026.01
2023-03-01T06:44:27.380Z,1025.98
2023-03-01T06:45:27.191Z,1025.97
2023-03-01T06:46:27.239Z,1026.02
2023-03-01T06:47:27.155Z,1025.97
2023-03-01T06:48:27.132Z,1025.98
2023-03-01T06:49:27.130Z,1026.00
2023-03-01T06:50:27.152Z,1026.01
2023-03-01T06:51:27.101Z,1025.99
2023-03-01T06:52:27.086Z,1025.98
2023-03-01T06:53:27.059Z,1025.97
2023-03-01T06:54:27.060Z,1026.00
2023-03-01T06:55:27.033Z,1025.98
2023-03-01T06:56:27.039Z,1025.99
2023-03-01T06:57:27.044Z,1025.99
2023-03-01T06:58:26.994Z,1025.99
2023-03-01T06:59:26.966Z,1026.00
2023-03-01T07:00:26.982Z,1026.01
2023-03-01T07:01:26.950Z,1026.01
2023-03-01T07:02:26.951Z,1025.99
2023-03-01T07:03:26.901Z,1026.00
2023-03-01T07:04:26.879Z,1025.97
2023-03-01T07:05:26.867Z,1026.03
2023-03-01T07:06:26.849Z,1026.03
2023-03-01T07:07:26.830Z,1026.05
2023-03-01T07:08:26.815Z,1026.05
2023-03-01T07:09:26.804Z,1026.00
2023-03-01T07:10:26.793Z,1026.03
2023-03-01T07:11:26.777Z,1026.03
2023-03-01T07:12:26.756Z,1026.03
2023-03-01T07:13:26.745Z,1026.02
2023-03-01T07:14:26.743Z,1026.01
2023-03-01T07:15:26.715Z,1026.03
2023-03-01T07:16:26.797Z,1025.99
2023-03-01T07:17:26.683Z,1026.00
2023-03-01T07:18:26.663Z,1025.99
2023-03-01T07:19:26.648Z,1025.99
2023-03-01T07:20:26.854Z,1026.04
2023-03-01T07:21:26.613Z,1026.06
2023-03-01T07:22:26.602Z,1026.04
2023-03-01T07:23:26.585Z,1026.05
2023-03-01T07:24:26.568Z,1026.06
2023-03-01T07:25:26.556Z,1026.04
2023-03-01T07:26:26.538Z,1026.07
2023-03-01T07:27:26.525Z,1026.07
2023-03-01T07:28:26.503Z,1026.06
2023-03-01T07:29:26.494Z,1026.03
2023-03-01T07:30:26.477Z,1025.99
2023-03-01T07:31:26.462Z,1026.02
2023-03-01T07:32:26.502Z,1026.07
2023-03-01T07:33:26.451Z,1026.06
2023-03-01T07:34:26.409Z,1026.04
2023-03-01T07:35:26.432Z,1026.04
2023-03-01T07:36:26.406Z,1026.00
2023-03-01T07:37:26.370Z,1026.00
2023-03-01T07:38:26.353Z,1026.02
2023-03-01T07:39:26.337Z,1026.00
2023-03-01T07:40:26.330Z,1026.04
2023-03-01T07:41:26.311Z,1026.01
2023-03-01T07:42:26.289Z,1026.04
2023-03-01T07:43:26.268Z,1026.03
2023-03-01T07:44:26.266Z,1026.04
2023-03-01T07:45:26.276Z,1026.00
2023-03-01T07:46:26.237Z,1026.03
2023-03-01T07:47:26.217Z,1026.02
2023-03-01T07:48:26.194Z,1025.99
2023-03-01T07:49:26.193Z,1025.97
2023-03-01T07:50:26.163Z,1025.96
2023-03-01T07:51:26.157Z,1025.99
2023-03-01T07:52:26.135Z,1026.02
2023-03-01T07:53:26.116Z,1025.98
2023-03-01T07:54:26.114Z,1026.01
2023-03-01T07:55:26.090Z,1025.99
2023-03-01T07:56:26.075Z,1025.97
2023-03-01T07:57:26.055Z,1026.01
2023-03-01T07:58:26.041Z,1026.00
2023-03-01T07:59:26.028Z,1025.97
2023-03-01T08:00:26.010Z,1026.00
2023-03-01T08:01:26.057Z,1025.99
2023-03-01T08:02:25.985Z,1025.97
2023-03-01T08:03:25.972Z,1025.94
2023-03-01T08:04:25.947Z,1025.96
2023-03-01T08:05:25.933Z,1026.04
2023-03-01T08:06:25.918Z,1025.94
2023-03-01T08:07:25.910Z,1025.97
2023-03-01T08:08:25.888Z,1025.98
2023-03-01T08:09:25.871Z,1025.97
2023-03-01T08:10:25.865Z,1026.01
2023-03-01T08:11:25.884Z,1025.99
2023-03-01T08:12:25.828Z,1026.02
2023-03-01T08:13:25.811Z,1025.96
2023-03-01T08:14:25.798Z,1025.99
2023-03-01T08:15:25.782Z,1025.93
2023-03-01T08:16:25.835Z,1025.96
2023-03-01T08:17:25.757Z,1025.93
2023-03-01T08:18:25.738Z,1025.93
2023-03-01T08:19:25.722Z,1025.93
2023-03-01T08:20:25.789Z,1025.94
2023-03-01T08:21:25.686Z,1025.92
2023-03-01T08:22:25.680Z,1025.95
2023-03-01T08:23:25.664Z,1025.88
2023-03-01T08:24:25.650Z,1025.94
2023-03-01T08:25:25.628Z,1025.90
2023-03-01T08:26:25.623Z,1025.90
2023-03-01T08:27:25.747Z,1025.85
2023-03-01T08:28:25.586Z,1025.81
2023-03-01T08:29:25.584Z,1025.80
2023-03-01T08:30:25.570Z,1025.81
2023-03-01T08:31:25.624Z,1025.77
2023-03-01T08:32:25.549Z,1025.74
2023-03-01T08:33:25.549Z,1025.72
2023-03-01T08:34:25.492Z,1025.74
2023-03-01T08:35:25.501Z,1025.72
2023-03-01T08:36:25.480Z,1025.71
2023-03-01T08:37:25.472Z,1025.70
2023-03-01T08:38:25.439Z,1025.75
2023-03-01T08:39:25.510Z,1025.72
2023-03-01T08:40:25.470Z,1025.70
2023-03-01T08:41:25.401Z,1025.68
2023-03-01T08:42:25.392Z,1025.69
2023-03-01T08:43:26.356Z,1025.73
2023-03-01T08:44:25.355Z,1025.75
2023-03-01T08:45:25.346Z,1025.75
2023-03-01T08:46:25.328Z,1025.74
2023-03-01T08:47:25.313Z,1025.73
2023-03-01T08:48:25.300Z,1025.75
2023-03-01T08:49:25.282Z,1025.70
2023-03-01T08:50:25.276Z,1025.69
2023-03-01T08:51:25.258Z,1025.64
2023-03-01T08:52:25.242Z,1025.65
2023-03-01T08:53:25.227Z,1025.66
2023-03-01T08:54:25.213Z,1025.67
2023-03-01T08:55:25.204Z,1025.64
2023-03-01T08:56:25.185Z,1025.65
2023-03-01T08:57:25.170Z,1025.64
2023-03-01T08:58:25.151Z,1025.62
2023-03-01T08:59:25.142Z,1025.62
2023-03-01T09:00:25.133Z,1025.60
2023-03-01T09:01:25.116Z,1025.59
2023-03-01T09:02:25.136Z,1025.61
2023-03-01T09:03:25.316Z,1025.62
2023-03-01T09:04:25.075Z,1025.54
2023-03-01T09:05:25.052Z,1025.54
2023-03-01T09:06:25.052Z,1025.56
2023-03-01T09:07:25.029Z,1025.58
2023-03-01T09:08:25.034Z,1025.53
2023-03-01T09:09:24.999Z,1025.55
2023-03-01T09:10:24.995Z,1025.54
2023-03-01T09:11:24.981Z,1025.55
2023-03-01T09:12:24.974Z,1025.58
2023-03-01T09:13:24.947Z,1025.57
2023-03-01T09:14:24.931Z,1025.59
2023-03-01T09:15:24.921Z,1025.62
2023-03-01T09:16:24.986Z,1025.62
2023-03-01T09:17:24.899Z,1025.62
2023-03-01T09:18:24.881Z,1025.61
2023-03-01T09:19:27.277Z,1025.61
2023-03-01T09:20:24.852Z,1025.60
2023-03-01T09:21:37.229Z,1025.54
2023-03-01T09:22:24.832Z,1025.61
2023-03-01T09:23:24.810Z,1025.57
2023-03-01T09:24:24.803Z,1025.58
2023-03-01T09:25:24.785Z,1025.58
2023-03-01T09:26:24.777Z,1025.58
2023-03-01T09:27:24.769Z,1025.52
2023-03-01T09:28:30.121Z,1025.57
2023-03-01T09:29:24.760Z,1025.56
2023-03-01T09:30:24.716Z,1025.55
2023-03-01T09:31:24.704Z,1025.54
2023-03-01T09:32:24.722Z,1025.59
2023-03-01T09:33:24.674Z,1025.55
2023-03-01T09:34:24.662Z,1025.53
2023-03-01T09:35:24.666Z,1025.52
2023-03-01T09:36:24.637Z,1025.54
2023-03-01T09:37:24.622Z,1025.51
2023-03-01T09:38:25.977Z,1025.50
2023-03-01T09:39:24.606Z,1025.52
2023-03-01T09:40:24.580Z,1025.56
2023-03-01T09:41:24.568Z,1025.53
2023-03-01T09:42:24.554Z,1025.54
2023-03-01T09:43:24.540Z,1025.53
2023-03-01T09:44:24.527Z,1025.53
2023-03-01T09:45:24.512Z,1025.53
2023-03-01T09:46:24.521Z,1025.52
2023-03-01T09:47:24.490Z,1025.54
2023-03-01T09:48:24.479Z,1025.54
2023-03-01T09:49:24.470Z,1025.50
2023-03-01T09:50:24.453Z,1025.50
2023-03-01T09:51:24.438Z,1025.50
2023-03-01T09:52:24.467Z,1025.52
2023-03-01T09:53:24.410Z,1025.50
2023-03-01T09:54:24.395Z,1025.49
2023-03-01T09:55:24.382Z,1025.54
2023-03-01T09:56:24.370Z,1025.49
2023-03-01T09:57:24.365Z,1025.53
2023-03-01T09:58:24.343Z,1025.54
2023-03-01T09:59:24.338Z,1025.55
2023-03-01T10:00:24.358Z,1025.53
2023-03-01T10:01:24.304Z,1025.53
2023-03-01T10:02:24.356Z,1025.52
2023-03-01T10:03:24.275Z,1025.53
2023-03-01T10:04:24.294Z,1025.56
2023-03-01T10:05:24.251Z,1025.50
2023-03-01T10:06:34.468Z,1025.56
2023-03-01T10:07:24.229Z,1025.57
2023-03-01T10:08:24.215Z,1025.61
2023-03-01T10:09:24.205Z,1025.60
2023-03-01T10:10:24.184Z,1025.61
2023-03-01T10:11:25.324Z,1025.59
2023-03-01T10:12:24.164Z,1025.63
2023-03-01T10:13:24.151Z,1025.57
2023-03-01T10:14:24.143Z,1025.57
2023-03-01T10:15:24.125Z,1025.60
2023-03-01T10:16:24.115Z,1025.55
2023-03-01T10:17:24.103Z,1025.55
2023-03-01T10:18:24.093Z,1025.54
2023-03-01T10:19:24.074Z,1025.56
2023-03-01T10:20:24.067Z,1025.56
2023-03-01T10:21:24.049Z,1025.51
2023-03-01T10:22:24.047Z,1025.53
2023-03-01T10:23:24.026Z,1025.49
2023-03-01T10:24:24.012Z,1025.49
2023-03-01T10:25:24.003Z,1025.48
2023-03-01T10:26:23.986Z,1025.49
2023-03-01T10:27:23.981Z,1025.51
2023-03-01T10:28:23.966Z,1025.46
2023-03-01T10:29:23.963Z,1025.48
2023-03-01T10:30:23.940Z,1025.45
2023-03-01T10:31:23.948Z,1025.46
2023-03-01T10:32:25.178Z,1025.46
2023-03-01T10:33:23.898Z,1025.44
2023-03-01T10:34:23.887Z,1025.42
2023-03-01T10:35:23.874Z,1025.40
2023-03-01T10:36:23.865Z,1025.39
2023-03-01T10:37:23.848Z,1025.37
2023-03-01T10:38:23.836Z,1025.32
2023-03-01T10:39:23.826Z,1025.35
2023-03-01T10:40:23.812Z,1025.36
2023-03-01T10:41:23.805Z,1025.31
2023-03-01T10:42:23.789Z,1025.27
2023-03-01T10:43:23.776Z,1025.27
2023-03-01T10:44:23.761Z,1025.26
2023-03-01T10:45:25.791Z,1025.17
2023-03-01T10:46:23.761Z,1025.22
2023-03-01T10:47:23.724Z,1025.19
2023-03-01T10:48:23.718Z,1025.18
2023-03-01T10:49:23.704Z,1025.20
2023-03-01T10:50:23.705Z,1025.21
2023-03-01T10:51:23.680Z,1025.16
2023-03-01T10:52:23.665Z,1025.16
2023-03-01T10:53:23.653Z,1025.15
2023-03-01T10:54:23.639Z,1025.16
2023-03-01T10:55:23.625Z,1025.10
2023-03-01T10:56:23.617Z,1025.11
2023-03-01T10:57:23.599Z,1025.11
2023-03-01T10:58:23.591Z,1025.07
2023-03-01T10:59:23.575Z,1025.07
2023-03-01T11:00:23.568Z,1025.06
2023-03-01T11:01:23.576Z,1025.08
2023-03-01T11:02:25.432Z,1025.04
2023-03-01T11:03:23.534Z,1025.05
2023-03-01T11:04:23.559Z,1025.04
2023-03-01T11:05:23.509Z,1025.05
2023-03-01T11:06:23.498Z,1025.04
2023-03-01T11:07:23.487Z,1025.04
2023-03-01T11:08:23.465Z,1025.04
2023-03-01T11:09:23.456Z,1025.02
2023-03-01T11:10:23.442Z,1024.99
2023-03-01T11:11:23.428Z,1024.97
2023-03-01T11:12:23.420Z,1024.91
2023-03-01T11:13:23.410Z,1024.89
2023-03-01T11:14:27.399Z,1024.88
2023-03-01T11:15:23.382Z,1024.87
2023-03-01T11:16:23.389Z,1024.85
2023-03-01T11:17:23.362Z,1024.83
2023-03-01T11:18:30.987Z,1024.85
2023-03-01T11:19:23.335Z,1024.82
2023-03-01T11:20:24.715Z,1024.87
2023-03-01T11:21:23.318Z,1024.87
2023-03-01T11:22:23.413Z,1024.81
2023-03-01T11:23:23.283Z,1024.82
2023-03-01T11:24:23.275Z,1024.85
2023-03-01T11:25:23.262Z,1024.81
2023-03-01T11:26:23.250Z,1024.81
2023-03-01T11:27:23.240Z,1024.80
2023-03-01T11:28:23.225Z,1024.81
2023-03-01T11:29:23.217Z,1024.84
2023-03-01T11:30:23.215Z,1024.84
2023-03-01T11:31:23.222Z,1024.83
2023-03-01T11:32:23.389Z,1024.80
2023-03-01T11:33:23.165Z,1024.81
2023-03-01T11:34:23.151Z,1024.77
2023-03-01T11:35:23.144Z,1024.80
2023-03-01T11:36:23.172Z,1024.76
2023-03-01T11:37:23.145Z,1024.81
2023-03-01T11:38:23.124Z,1024.78
2023-03-01T11:39:23.093Z,1024.78
2023-03-01T11:40:23.086Z,1024.78
2023-03-01T11:41:23.069Z,1024.80
2023-03-01T11:42:23.059Z,1024.74
2023-03-01T11:43:23.052Z,1024.76
2023-03-01T11:44:23.034Z,1024.77
2023-03-01T11:45:23.038Z,1024.79
2023-03-01T11:46:23.075Z,1024.73
2023-03-01T11:47:23.141Z,1024.73
2023-03-01T11:48:22.989Z,1024.72
2023-03-01T11:49:22.981Z,1024.75
2023-03-01T11:50:22.964Z,1024.73
2023-03-01T11:51:22.988Z,1024.70
2023-03-01T11:52:22.941Z,1024.68
2023-03-01T11:53:22.952Z,1024.69
2023-03-01T11:54:22.924Z,1024.69
2023-03-01T11:55:22.945Z,1024.71
2023-03-01T11:56:24.017Z,1024.67
2023-03-01T11:57:26.931Z,1024.73
2023-03-01T11:58:22.877Z,1024.70
2023-03-01T11:59:22.866Z,1024.67
2023-03-01T12:00:22.847Z,1024.70
2023-03-01T12:01:22.839Z,1024.66
2023-03-01T12:02:22.930Z,1024.67
2023-03-01T12:03:22.816Z,1024.64
2023-03-01T12:04:22.895Z,1024.64
2023-03-01T12:05:22.791Z,1024.63